createdAt,value
2023-02-11T00:01:21.749Z,0.40
2023-02-11T00:04:12.781Z,0.44
2023-02-11T00:07:08.751Z,0.47
2023-02-11T00:10:02.902Z,0.51
2023-02-11T00:12:55.797Z,0.55
2023-02-11T00:15:48.882Z,0.58
2023-02-11T00:18:44.704Z,0.56
2023-02-11T00:21:37.552Z,0.51
2023-02-11T00:24:32.091Z,0.46
2023-02-11T00:27:24.802Z,0.42
2023-02-11T00:30:17.835Z,0.38
2023-02-11T00:33:10.633Z,0.32
2023-02-11T00:36:08.171Z,0.28
2023-02-11T00:39:04.447Z,0.24
2023-02-11T00:41:57.177Z,0.20
2023-02-11T00:44:50.423Z,0.16
2023-02-11T00:47:36.448Z,0.13
2023-02-11T00:50:29.702Z,0.15
2023-02-11T00:53:22.439Z,0.19
2023-02-11T00:56:15.253Z,0.24
2023-02-11T00:59:08.264Z,0.30
2023-02-11T01:02:01.566Z,0.34
2023-02-11T01:04:54.406Z,0.33
2023-02-11T01:07:48.382Z,0.32
2023-02-11T01:10:41.449Z,0.29
2023-02-11T01:13:37.324Z,0.26
2023-02-11T01:16:30.246Z,0.21
2023-02-11T01:19:23.015Z,0.17
2023-02-11T01:22:15.839Z,0.12
2023-02-11T01:25:09.451Z,0.07
2023-02-11T01:28:03.169Z,0.04
2023-02-11T01:30:48.857Z,-0.00
2023-02-11T01:33:42.000Z,-0.03
2023-02-11T01:36:34.840Z,-0.01
2023-02-11T01:39:28.011Z,0.04
2023-02-11T01:42:23.585Z,0.10
2023-02-11T01:45:54.936Z,0.15
2023-02-11T01:48:53.341Z,0.17
2023-02-11T01:51:49.903Z,0.13
2023-02-11T01:55:05.157Z,0.10
2023-02-11T01:58:02.421Z,0.06
2023-02-11T02:00:57.718Z,0.01
2023-02-11T02:03:54.016Z,-0.04
2023-02-11T02:06:51.143Z,-0.08
2023-02-11T02:09:57.737Z,-0.11
2023-02-11T02:12:50.878Z,-0.13
2023-02-11T02:15:37.602Z,-0.15
2023-02-11T02:18:45.296Z,-0.16
2023-02-11T02:22:10.526Z,-0.14
2023-02-11T02:25:21.017Z,-0.07
2023-02-11T02:28:39.096Z,0.01
2023-02-11T02:31:53.703Z,0.06
2023-02-11T02:34:52.470Z,0.06
2023-02-11T02:37:53.917Z,0.04
2023-02-11T02:40:55.880Z,-0.01
2023-02-11T02:43:51.850Z,-0.07
2023-02-11T02:46:38.464Z,-0.13
2023-02-11T02:49:33.125Z,-0.20
2023-02-11T02:52:40.643Z,-0.27
2023-02-11T02:55:54.199Z,-0.33
2023-02-11T02:59:22.179Z,-0.38
2023-02-11T03:02:23.182Z,-0.44
2023-02-11T03:05:31.499Z,-0.51
2023-02-11T03:08:31.285Z,-0.60
2023-02-11T03:11:25.900Z,-0.68
2023-02-11T03:14:20.675Z,-0.74
2023-02-11T03:17:15.569Z,-0.78
2023-02-11T03:20:12.497Z,-0.81
2023-02-11T03:23:06.256Z,-0.82
2023-02-11T03:26:11.885Z,-0.85
2023-02-11T03:29:15.668Z,-0.89
2023-02-11T03:32:09.480Z,-0.96
2023-02-11T03:35:05.659Z,-1.03
2023-02-11T03:38:02.034Z,-1.13
2023-02-11T03:40:57.061Z,-1.22
2023-02-11T03:43:55.849Z,-1.30
2023-02-11T03:46:52.972Z,-1.37
2023-02-11T03:49:37.493Z,-1.44
2023-02-11T03:52:30.706Z,-1.51
2023-02-11T03:55:20.218Z,-1.58
2023-02-11T03:58:13.517Z,-1.65
2023-02-11T04:01:09.920Z,-1.71
2023-02-11T04:04:02.749Z,-1.73
2023-02-11T04:06:48.406Z,-1.72
2023-02-11T04:09:41.737Z,-1.68
2023-02-11T04:12:34.838Z,-1.64
2023-02-11T04:15:28.118Z,-1.60
2023-02-11T04:18:20.928Z,-1.58
2023-02-11T04:21:01.075Z,-1.60
2023-02-11T04:23:53.852Z,-1.63
2023-02-11T04:26:46.836Z,-1.67
2023-02-11T04:29:40.241Z,-1.71
2023-02-11T04:32:33.386Z,-1.75
2023-02-11T04:35:26.145Z,-1.79
2023-02-11T04:38:19.024Z,-1.84
2023-02-11T04:41:11.885Z,-1.88
2023-02-11T04:44:04.886Z,-1.92
2023-02-11T04:46:57.677Z,-1.92
2023-02-11T04:49:50.476Z,-1.91
2023-02-11T04:52:43.366Z,-1.87
2023-02-11T04:55:36.539Z,-1.82
2023-02-11T04:58:29.430Z,-1.75
2023-02-11T05:01:22.338Z,-1.70
2023-02-11T05:04:15.672Z,-1.70
2023-02-11T05:07:08.564Z,-1.69
2023-02-11T05:10:01.559Z,-1.71
2023-02-11T05:12:56.028Z,-1.76
2023-02-11T05:15:50.148Z,-1.82
2023-02-11T05:18:44.538Z,-1.88
2023-02-11T05:21:37.741Z,-1.93
2023-02-11T05:24:30.634Z,-1.96
2023-02-11T05:27:24.441Z,-2.01
2023-02-11T05:30:17.913Z,-2.02
2023-02-11T05:33:10.750Z,-2.05
2023-02-11T05:36:06.077Z,-2.07
2023-02-11T05:38:58.930Z,-2.08
2023-02-11T05:41:51.815Z,-2.05
2023-02-11T05:44:45.255Z,-2.01
2023-02-11T05:47:30.621Z,-1.98
2023-02-11T05:50:16.042Z,-1.94
2023-02-11T05:53:08.891Z,-1.93
2023-02-11T05:56:01.960Z,-1.94
2023-02-11T05:58:54.900Z,-1.95
2023-02-11T06:01:47.669Z,-1.98
2023-02-11T06:04:40.592Z,-2.01
2023-02-11T06:07:33.528Z,-2.04
2023-02-11T06:10:26.273Z,-2.08
2023-02-11T06:13:19.850Z,-2.11
2023-02-11T06:16:12.711Z,-2.15
2023-02-11T06:19:05.815Z,-2.18
2023-02-11T06:21:58.772Z,-2.19
2023-02-11T06:25:01.382Z,-2.20
2023-02-11T06:27:54.742Z,-2.15
2023-02-11T06:30:41.391Z,-2.09
2023-02-11T06:33:34.616Z,-2.03
2023-02-11T06:36:27.825Z,-1.97
2023-02-11T06:39:20.733Z,-1.91
2023-02-11T06:42:08.023Z,-1.87
2023-02-11T06:44:54.191Z,-1.85
2023-02-11T06:47:46.975Z,-1.83
2023-02-11T06:50:39.734Z,-1.82
2023-02-11T06:53:32.794Z,-1.81
2023-02-11T06:56:28.235Z,-1.81
2023-02-11T06:59:14.283Z,-1.80
2023-02-11T07:02:07.223Z,-1.77
2023-02-11T07:04:56.754Z,-1.73
2023-02-11T07:07:49.676Z,-1.67
2023-02-11T07:10:42.885Z,-1.62
2023-02-11T07:13:36.496Z,-1.57
2023-02-11T07:16:21.055Z,-1.51
2023-02-11T07:19:14.229Z,-1.43
2023-02-11T07:21:49.986Z,-1.38
2023-02-11T07:24:25.070Z,-1.32
2023-02-11T07:27:18.186Z,-1.23
2023-02-11T07:30:16.583Z,-1.14
2023-02-11T07:33:09.695Z,-1.07
2023-02-11T07:36:05.356Z,-0.99
2023-02-11T07:38:58.539Z,-0.90
2023-02-11T07:41:47.918Z,-0.83
2023-02-11T07:44:40.850Z,-0.80
2023-02-11T07:47:35.781Z,-0.79
2023-02-11T07:50:19.750Z,-0.77
2023-02-11T07:53:11.710Z,-0.73
2023-02-11T07:56:06.090Z,-0.69
2023-02-11T07:58:51.782Z,-0.66
2023-02-11T08:01:44.808Z,-0.63
2023-02-11T08:04:38.289Z,-0.55
2023-02-11T08:07:31.337Z,-0.45
2023-02-11T08:10:27.359Z,-0.34
2023-02-11T08:13:20.269Z,-0.25
2023-02-11T08:16:21.641Z,-0.20
2023-02-11T08:19:17.117Z,-0.17
2023-02-11T08:22:10.061Z,-0.14
2023-02-11T08:25:06.249Z,-0.12
2023-02-11T08:27:57.886Z,-0.11
2023-02-11T08:30:33.103Z,-0.07
2023-02-11T08:33:16.057Z,-0.04
2023-02-11T08:36:14.080Z,0.05
2023-02-11T08:39:22.502Z,0.13
2023-02-11T08:42:09.250Z,0.18
2023-02-11T08:45:02.255Z,0.18
2023-02-11T08:47:48.077Z,0.12
2023-02-11T08:50:28.199Z,0.10
2023-02-11T08:53:21.121Z,0.11
2023-02-11T08:55:55.847Z,0.12
2023-02-11T08:58:49.032Z,0.13
2023-02-11T09:01:43.623Z,0.15
2023-02-11T09:04:36.675Z,0.16
2023-02-11T09:07:32.878Z,0.16
2023-02-11T09:10:25.929Z,0.14
2023-02-11T09:13:21.566Z,0.17
2023-02-11T09:16:06.994Z,0.25
2023-02-11T09:19:02.365Z,0.37
2023-02-11T09:21:54.046Z,0.51
2023-02-11T09:24:37.027Z,0.71
2023-02-11T09:27:31.367Z,0.99
2023-02-11T09:30:24.954Z,1.18
2023-02-11T09:33:17.913Z,1.33
2023-02-11T09:36:12.039Z,1.46
2023-02-11T09:39:06.606Z,1.56
2023-02-11T09:42:22.001Z,1.68
2023-02-11T09:45:20.412Z,1.82
2023-02-11T09:48:06.173Z,1.87
2023-02-11T09:50:41.452Z,1.87
2023-02-11T09:53:29.929Z,1.90
2023-02-11T09:56:23.171Z,2.01
2023-02-11T09:59:17.755Z,2.14
2023-02-11T10:02:17.655Z,2.17
2023-02-11T10:05:35.194Z,2.17
2023-02-11T10:08:28.689Z,2.23
2023-02-11T10:11:32.088Z,2.35
2023-02-11T10:14:21.296Z,2.55
2023-02-11T10:17:22.735Z,2.69
2023-02-11T10:20:26.404Z,2.76
2023-02-11T10:23:22.508Z,2.83
2023-02-11T10:26:20.759Z,2.83
2023-02-11T10:29:00.901Z,2.73
2023-02-11T10:31:57.929Z,2.56
2023-02-11T10:34:52.091Z,2.43
2023-02-11T10:37:45.753Z,2.31
2023-02-11T10:40:39.361Z,2.27
2023-02-11T10:43:36.328Z,2.26
2023-02-11T10:46:33.578Z,2.32
2023-02-11T10:49:42.307Z,2.49
2023-02-11T10:52:35.146Z,2.67
2023-02-11T10:55:30.126Z,2.83
2023-02-11T10:58:33.295Z,2.99
2023-02-11T11:01:38.696Z,3.13
2023-02-11T11:04:45.116Z,3.18
2023-02-11T11:07:39.690Z,3.22
2023-02-11T11:10:44.618Z,3.25
2023-02-11T11:13:40.077Z,3.26
2023-02-11T11:16:28.349Z,3.37
2023-02-11T11:19:25.338Z,3.51
2023-02-11T11:22:24.898Z,3.58
2023-02-11T11:25:30.696Z,3.64
2023-02-11T11:28:26.544Z,3.74
2023-02-11T11:31:23.425Z,3.83
2023-02-11T11:34:31.036Z,3.91
2023-02-11T11:37:27.955Z,3.98
2023-02-11T11:40:29.143Z,4.04
2023-02-11T11:43:23.924Z,4.12
2023-02-11T11:46:07.801Z,4.25
2023-02-11T11:48:53.209Z,4.39
2023-02-11T11:51:43.552Z,4.54
2023-02-11T11:54:26.537Z,4.65
2023-02-11T11:57:24.380Z,4.75
2023-02-11T12:00:22.222Z,4.73
2023-02-11T12:03:29.293Z,4.59
2023-02-11T12:06:33.785Z,4.41
2023-02-11T12:09:34.013Z,4.30
2023-02-11T12:12:40.889Z,4.42
2023-02-11T12:15:36.480Z,4.53
2023-02-11T12:18:38.645Z,4.57
2023-02-11T12:21:55.484Z,4.58
2023-02-11T12:25:10.053Z,4.67
2023-02-11T12:28:09.061Z,4.78
2023-02-11T12:31:15.341Z,4.78
2023-02-11T12:34:27.263Z,4.71
2023-02-11T12:37:43.944Z,4.66
2023-02-11T12:40:26.647Z,4.45
2023-02-11T12:43:25.798Z,4.18
2023-02-11T12:46:43.523Z,3.95
2023-02-11T12:49:55.903Z,3.78
2023-02-11T12:53:19.210Z,3.62
2023-02-11T12:56:18.952Z,3.48
2023-02-11T12:59:18.755Z,3.38
2023-02-11T13:02:13.516Z,3.29
2023-02-11T13:05:19.995Z,3.28
2023-02-11T13:08:17.685Z,3.30
2023-02-11T13:11:15.165Z,3.36
2023-02-11T13:14:17.896Z,3.35
2023-02-11T13:17:21.293Z,3.30
2023-02-11T13:20:27.668Z,3.25
2023-02-11T13:23:24.582Z,3.20
2023-02-11T13:26:25.020Z,3.15
2023-02-11T13:29:33.346Z,3.12
2023-02-11T13:32:19.088Z,3.07
2023-02-11T13:35:06.082Z,3.01
2023-02-11T13:38:00.409Z,2.98
2023-02-11T13:41:04.482Z,2.92
2023-02-11T13:44:27.411Z,2.85
2023-02-11T13:47:43.122Z,2.78
2023-02-11T13:50:40.950Z,2.69
2023-02-11T13:53:45.739Z,2.58
2023-02-11T13:56:41.230Z,2.47
2023-02-11T13:59:51.500Z,2.36
2023-02-11T14:03:01.852Z,2.23
2023-02-11T14:06:30.774Z,2.15
2023-02-11T14:09:40.083Z,2.08
2023-02-11T14:12:36.224Z,2.03
2023-02-11T14:16:04.545Z,2.02
2023-02-11T14:19:04.567Z,2.03
2023-02-11T14:22:06.021Z,2.03
2023-02-11T14:25:02.193Z,2.01
2023-02-11T14:27:59.332Z,1.95
2023-02-11T14:31:05.179Z,1.86
2023-02-11T14:34:24.347Z,1.82
2023-02-11T14:37:33.097Z,1.75
2023-02-11T14:40:33.452Z,1.72
2023-02-11T14:43:30.704Z,1.71
2023-02-11T14:46:27.785Z,1.70
2023-02-11T14:49:29.782Z,1.71
2023-02-11T14:52:30.396Z,1.69
2023-02-11T14:55:34.650Z,1.62
2023-02-11T14:58:29.675Z,1.53
2023-02-11T15:01:35.429Z,1.40
2023-02-11T15:04:30.282Z,1.27
2023-02-11T15:07:23.652Z,1.13
2023-02-11T15:10:25.898Z,1.05
2023-02-11T15:13:27.303Z,0.99
2023-02-11T15:16:23.817Z,0.96
2023-02-11T15:19:25.736Z,0.94
2023-02-11T15:22:25.038Z,0.90
2023-02-11T15:25:20.040Z,0.87
2023-02-11T15:28:26.058Z,0.86
2023-02-11T15:31:21.166Z,0.85
2023-02-11T15:34:11.608Z,0.85
2023-02-11T15:36:54.731Z,0.83
2023-02-11T15:39:47.813Z,0.80
2023-02-11T15:42:52.595Z,0.77
2023-02-11T15:45:55.447Z,0.74
2023-02-11T15:48:44.127Z,0.72
2023-02-11T15:51:42.527Z,0.70
2023-02-11T15:54:34.674Z,0.66
2023-02-11T15:57:27.816Z,0.65
2023-02-11T16:00:23.500Z,0.64
2023-02-11T16:03:09.455Z,0.63
2023-02-11T16:06:24.145Z,0.59
2023-02-11T16:09:33.531Z,0.53
2023-02-11T16:12:29.353Z,0.46
2023-02-11T16:15:48.351Z,0.40
2023-02-11T16:18:52.033Z,0.38
2023-02-11T16:21:49.214Z,0.38
2023-02-11T16:24:42.920Z,0.37
2023-02-11T16:27:40.073Z,0.36
2023-02-11T16:30:38.454Z,0.38
2023-02-11T16:33:31.746Z,0.41
2023-02-11T16:36:18.616Z,0.45
2023-02-11T16:39:12.068Z,0.49
2023-02-11T16:42:07.438Z,0.53
2023-02-11T16:45:00.358Z,0.56
2023-02-11T16:47:44.480Z,0.58
2023-02-11T16:50:38.034Z,0.56
2023-02-11T16:53:26.616Z,0.53
2023-02-11T16:56:19.742Z,0.49
2023-02-11T16:59:13.186Z,0.45
2023-02-11T17:02:00.681Z,0.42
2023-02-11T17:04:48.204Z,0.43
2023-02-11T17:07:41.296Z,0.46
2023-02-11T17:10:37.892Z,0.50
2023-02-11T17:13:30.861Z,0.54
2023-02-11T17:16:27.782Z,0.58
2023-02-11T17:19:22.302Z,0.60
2023-02-11T17:22:15.361Z,0.63
2023-02-11T17:25:09.453Z,0.66
2023-02-11T17:28:02.437Z,0.69
2023-02-11T17:30:55.439Z,0.71
2023-02-11T17:33:48.792Z,0.72
2023-02-11T17:36:42.077Z,0.70
2023-02-11T17:39:35.110Z,0.66
2023-02-11T17:42:29.450Z,0.64
2023-02-11T17:45:22.622Z,0.65
2023-02-11T17:48:16.075Z,0.69
2023-02-11T17:51:00.552Z,0.75
2023-02-11T17:53:43.420Z,0.81
2023-02-11T17:56:26.391Z,0.88
2023-02-11T17:59:19.807Z,0.94
2023-02-11T18:02:14.405Z,1.01
2023-02-11T18:05:08.087Z,1.07
2023-02-11T18:08:01.384Z,1.13
2023-02-11T18:10:54.319Z,1.16
2023-02-11T18:13:54.832Z,1.15
2023-02-11T18:16:50.649Z,1.11
2023-02-11T18:19:43.643Z,1.09
2023-02-11T18:22:40.219Z,1.12
2023-02-11T18:25:33.504Z,1.15
2023-02-11T18:28:26.641Z,1.18
2023-02-11T18:31:22.031Z,1.22
2023-02-11T18:34:17.255Z,1.26
2023-02-11T18:37:10.413Z,1.29
2023-02-11T18:39:47.338Z,1.32
2023-02-11T18:42:40.372Z,1.37
2023-02-11T18:45:34.215Z,1.42
2023-02-11T18:48:09.822Z,1.44
2023-02-11T18:51:02.617Z,1.45
2023-02-11T18:53:55.908Z,1.45
2023-02-11T18:56:50.143Z,1.41
2023-02-11T18:59:28.041Z,1.42
2023-02-11T19:02:22.075Z,1.44
2023-02-11T19:05:15.791Z,1.48
2023-02-11T19:08:10.269Z,1.52
2023-02-11T19:11:06.842Z,1.61
2023-02-11T19:13:59.626Z,1.78
2023-02-11T19:16:57.458Z,1.94
2023-02-11T19:19:50.563Z,2.09
2023-02-11T19:22:44.958Z,2.20
2023-02-11T19:25:37.946Z,2.31
2023-02-11T19:28:33.202Z,2.39
2023-02-11T19:31:16.449Z,2.46
2023-02-11T19:34:09.453Z,2.51
2023-02-11T19:37:02.296Z,2.55
2023-02-11T19:39:55.379Z,2.56
2023-02-11T19:42:48.365Z,2.53
2023-02-11T19:45:41.561Z,2.49
2023-02-11T19:48:27.142Z,2.49
2023-02-11T19:51:20.729Z,2.51
2023-02-11T19:54:13.617Z,2.52
2023-02-11T19:57:06.833Z,2.53
2023-02-11T20:00:01.503Z,2.55
2023-02-11T20:02:54.444Z,2.59
2023-02-11T20:05:40.361Z,2.62
2023-02-11T20:08:33.548Z,2.65
2023-02-11T20:11:28.254Z,2.67
2023-02-11T20:14:12.921Z,2.69
2023-02-11T20:17:08.158Z,2.72
2023-02-11T20:20:01.360Z,2.72
2023-02-11T20:22:36.792Z,2.71
2023-02-11T20:25:17.850Z,2.70
2023-02-11T20:27:54.088Z,2.70
2023-02-11T20:30:34.741Z,2.72
2023-02-11T20:33:28.594Z,2.74
2023-02-11T20:36:16.697Z,2.78
2023-02-11T20:39:17.245Z,2.82
2023-02-11T20:42:14.431Z,2.85
2023-02-11T20:45:09.337Z,2.89
2023-02-11T20:48:02.211Z,2.93
2023-02-11T20:50:54.223Z,2.97
2023-02-11T20:53:50.034Z,3.00
2023-02-11T20:56:45.502Z,3.01
2023-02-11T20:59:40.006Z,3.02
2023-02-11T21:02:33.039Z,3.03
2023-02-11T21:05:25.863Z,3.04
2023-02-11T21:08:19.366Z,3.07
2023-02-11T21:11:12.547Z,3.10
2023-02-11T21:14:06.065Z,3.10
2023-02-11T21:16:59.345Z,3.07
2023-02-11T21:19:52.828Z,3.04
2023-02-11T21:22:38.436Z,2.99
2023-02-11T21:25:32.618Z,2.98
2023-02-11T21:28:27.382Z,2.96
2023-02-11T21:31:25.115Z,2.93
2023-02-11T21:34:17.991Z,2.93
2023-02-11T21:37:09.516Z,2.94
2023-02-11T21:40:02.427Z,2.97
2023-02-11T21:42:56.865Z,2.97
2023-02-11T21:45:51.712Z,2.99
2023-02-11T21:48:44.735Z,2.99
2023-02-11T21:51:38.085Z,2.99
2023-02-11T21:54:33.794Z,3.00
2023-02-11T21:57:26.559Z,3.02
2023-02-11T22:00:21.209Z,3.05
2023-02-11T22:03:15.029Z,3.09
2023-02-11T22:06:01.597Z,3.10
2023-02-11T22:08:55.105Z,3.10
2023-02-11T22:11:49.372Z,3.11
2023-02-11T22:14:42.203Z,3.12
2023-02-11T22:17:36.277Z,3.11
2023-02-11T22:20:29.312Z,3.11
2023-02-11T22:23:22.623Z,3.13
2023-02-11T22:26:17.651Z,3.15
2023-02-11T22:29:10.916Z,3.17
2023-02-11T22:32:03.833Z,3.18
2023-02-11T22:34:46.004Z,3.19
2023-02-11T22:37:38.808Z,3.22
2023-02-11T22:40:31.759Z,3.20
2023-02-11T22:43:24.755Z,3.19
2023-02-11T22:46:20.573Z,3.18
2023-02-11T22:49:15.707Z,3.18
2023-02-11T22:52:08.752Z,3.21
2023-02-11T22:55:01.656Z,3.23
2023-02-11T22:57:54.430Z,3.25
2023-02-11T23:00:47.275Z,3.27
2023-02-11T23:03:40.486Z,3.28
2023-02-11T23:06:34.396Z,3.27
2023-02-11T23:09:28.363Z,3.26
2023-02-11T23:12:21.426Z,3.25
2023-02-11T23:15:15.312Z,3.24
2023-02-11T23:18:08.696Z,3.24
2023-02-11T23:21:06.813Z,3.25
2023-02-11T23:23:59.010Z,3.25
2023-02-11T23:26:51.456Z,3.25
2023-02-11T23:29:44.293Z,3.25
2023-02-11T23:32:41.019Z,3.23
2023-02-11T23:35:34.189Z,3.23
2023-02-11T23:38:28.815Z,3.21
2023-02-11T23:41:22.237Z,3.21
2023-02-11T23:44:17.806Z,3.21
2023-02-11T23:47:10.628Z,3.24
2023-02-11T23:50:05.184Z,3.26
2023-02-11T23:52:50.961Z,3.28
2023-02-11T23:55:45.806Z,3.31
2023-02-11T23:58:39.030Z,3.33
